Time;durP1;ratioP1;P1;durP2;ratioP2;P2;SDS_P1;SDS_P2;PMS_P1;PMS_P2;Temp;Humidity;BMP_temperature;BMP_pressure;BME280_temperature;BME280_humidity;BME280_pressure;Samples;Min_cycle;Max_cycle;Signal;HPM_P1;HPM_P2
2023/06/07 00:01:06;;;;;;;8.10;5.70;;;17.10;99.90;;;;;;5072837;28;20219;-84
2023/06/07 00:03:33;;;;;;;9.65;6.05;;;17.10;99.90;;;;;;5074244;28;20193;-85
2023/06/07 00:06:02;;;;;;;11.98;6.30;;;17.10;99.90;;;;;;5073597;28;20218;-85
2023/06/07 00:08:28;;;;;;;11.07;6.30;;;17.10;99.90;;;;;;5072839;28;20538;-84
2023/06/07 00:10:55;;;;;;;9.50;6.20;;;17.00;99.90;;;;;;5073947;28;20203;-84
2023/06/07 00:13:21;;;;;;;9.60;5.93;;;17.00;99.90;;;;;;5073878;28;20175;-84
2023/06/07 00:15:47;;;;;;;9.45;6.32;;;17.00;99.90;;;;;;5074102;28;20206;-84
2023/06/07 00:18:14;;;;;;;9.18;6.07;;;17.00;99.90;;;;;;5073773;28;20179;-84
2023/06/07 00:20:44;;;;;;;11.30;6.32;;;16.90;99.90;;;;;;5073552;28;20206;-84
2023/06/07 00:23:13;;;;;;;11.35;6.20;;;16.80;99.90;;;;;;5073448;28;20191;-84
2023/06/07 00:25:39;;;;;;;10.20;6.57;;;16.80;99.90;;;;;;5072441;28;20175;-83
2023/06/07 00:28:05;;;;;;;8.85;6.30;;;16.80;99.90;;;;;;5093621;28;20178;-84
2023/06/07 00:30:31;;;;;;;7.47;5.30;;;16.70;99.90;;;;;;5093956;28;20174;-84
2023/06/07 00:32:56;;;;;;;10.85;6.40;;;16.70;99.90;;;;;;5093801;28;20198;-84
2023/06/07 00:35:22;;;;;;;10.05;6.28;;;16.70;99.90;;;;;;5075871;28;20177;-84
2023/06/07 00:37:48;;;;;;;9.77;5.75;;;16.60;99.90;;;;;;5093839;28;20171;-84
2023/06/07 00:40:14;;;;;;;10.27;6.00;;;16.60;99.90;;;;;;5093696;28;20170;-84
2023/06/07 00:42:40;;;;;;;9.05;6.10;;;16.60;99.90;;;;;;5075464;28;20647;-84
2023/06/07 00:45:06;;;;;;;10.30;6.47;;;16.60;99.90;;;;;;5093340;28;20210;-84
2023/06/07 00:47:33;;;;;;;9.85;6.32;;;16.50;99.90;;;;;;5093791;28;20584;-84
2023/06/07 00:49:59;;;;;;;8.88;6.03;;;16.60;99.90;;;;;;5075718;28;20182;-84
2023/06/07 00:52:26;;;;;;;9.77;5.97;;;16.50;99.90;;;;;;5092546;28;20519;-84
2023/06/07 00:54:52;;;;;;;11.88;5.85;;;16.50;99.90;;;;;;5075452;28;20665;-84
2023/06/07 00:57:18;;;;;;;8.90;5.32;;;16.40;99.90;;;;;;5093344;28;20170;-84
2023/06/07 00:59:45;;;;;;;9.65;6.50;;;16.40;99.90;;;;;;5096300;28;20171;-84
2023/06/07 01:02:14;;;;;;;12.70;6.95;;;16.30;99.90;;;;;;5080214;28;20569;-83
2023/06/07 01:04:40;;;;;;;9.45;6.20;;;16.30;99.90;;;;;;5093323;28;20186;-84
2023/06/07 01:07:07;;;;;;;10.10;6.15;;;16.30;99.90;;;;;;5075213;28;20178;-83
2023/06/07 01:09:34;;;;;;;13.27;6.53;;;16.30;99.90;;;;;;5093344;28;20730;-84
2023/06/07 01:12:01;;;;;;;10.40;5.88;;;16.30;99.90;;;;;;5093161;28;20183;-84
2023/06/07 01:15:14;;;;;;;13.60;7.10;;;16.30;99.90;;;;;;5075215;28;20178;-83
2023/06/07 01:17:44;;;;;;;8.75;6.10;;;16.20;99.90;;;;;;5093700;28;20170;-84
2023/06/07 01:20:24;;;;;;;12.77;6.72;;;16.00;99.90;;;;;;5078292;28;20239;-84
2023/06/07 01:22:53;;;;;;;9.20;6.30;;;16.00;99.90;;;;;;5093167;28;20685;-84
2023/06/07 01:25:19;;;;;;;8.55;6.40;;;16.00;99.90;;;;;;5092905;28;20273;-84
2023/06/07 01:27:46;;;;;;;11.48;7.18;;;16.10;99.90;;;;;;5074909;28;20329;-84
2023/06/07 01:30:13;;;;;;;11.40;6.63;;;16.00;99.90;;;;;;5093138;28;20253;-84
2023/06/07 01:32:41;;;;;;;10.05;5.95;;;16.00;99.90;;;;;;5093067;28;20182;-84
2023/06/07 01:35:09;;;;;;;9.60;5.70;;;15.80;99.90;;;;;;5074853;28;20183;-84
2023/06/07 01:37:36;;;;;;;10.63;6.10;;;15.90;99.90;;;;;;5075328;28;20184;-84
2023/06/07 01:40:05;;;;;;;8.93;6.13;;;15.80;99.90;;;;;;5074815;28;20265;-84
2023/06/07 01:42:33;;;;;;;9.50;6.18;;;15.70;99.90;;;;;;5092981;28;20263;-84
2023/06/07 01:45:00;;;;;;;11.68;6.35;;;15.70;99.90;;;;;;5074997;28;20181;-84
2023/06/07 01:47:26;;;;;;;11.48;7.03;;;15.70;99.90;;;;;;5092981;28;20179;-83
2023/06/07 01:49:52;;;;;;;13.02;7.10;;;15.70;99.90;;;;;;5092938;28;20177;-83
2023/06/07 01:52:18;;;;;;;11.57;6.80;;;15.70;99.90;;;;;;5092653;28;20209;-83
2023/06/07 01:54:44;;;;;;;11.95;7.25;;;15.80;99.90;;;;;;5074803;28;20178;-83
2023/06/07 01:57:28;;;;;;;12.82;6.15;;;15.80;99.90;;;;;;5092794;28;20664;-83
2023/06/07 02:00:21;;;;;;;11.07;6.38;;;15.80;99.90;;;;;;5093057;28;20631;-83
2023/06/07 02:02:59;;;;;;;9.73;6.35;;;15.70;99.90;;;;;;5092994;28;20297;-83
2023/06/07 02:05:38;;;;;;;10.57;6.07;;;15.70;99.90;;;;;;5096406;28;20223;-84
2023/06/07 02:08:13;;;;;;;11.15;6.22;;;15.60;99.90;;;;;;5096344;28;20177;-84
2023/06/07 02:10:41;;;;;;;10.10;6.15;;;15.60;99.90;;;;;;5096490;28;20170;-84
2023/06/07 02:13:08;;;;;;;13.18;6.72;;;15.60;99.90;;;;;;5078491;28;20182;-84
2023/06/07 02:15:34;;;;;;;10.15;6.20;;;15.70;99.90;;;;;;5077838;28;20190;-84
2023/06/07 02:18:01;;;;;;;9.70;6.30;;;15.70;99.90;;;;;;5061785;28;20179;-84
2023/06/07 02:20:28;;;;;;;11.45;6.75;;;15.70;99.90;;;;;;5078179;28;20170;-84
2023/06/07 02:22:56;;;;;;;11.00;6.32;;;15.70;99.90;;;;;;5096445;28;20297;-84
2023/06/07 02:25:22;;;;;;;12.57;7.43;;;15.70;99.90;;;;;;5096289;28;20177;-83
2023/06/07 02:27:48;;;;;;;11.80;6.53;;;15.70;99.90;;;;;;5104332;28;20248;-83
2023/06/07 02:30:14;;;;;;;7.97;6.03;;;15.70;99.90;;;;;;5090153;28;20174;-84
2023/06/07 02:32:40;;;;;;;9.57;6.65;;;;;;;;;;5087786;28;20183;-84
2023/06/07 02:35:07;;;;;;;15.60;7.60;;;15.80;99.90;;;;;;5079147;28;20189;-84
2023/06/07 02:37:33;;;;;;;13.20;6.28;;;15.80;99.90;;;;;;5096338;28;20174;-83
2023/06/07 02:39:59;;;;;;;10.65;6.72;;;15.80;99.90;;;;;;5096283;28;20657;-84
2023/06/07 02:42:25;;;;;;;12.35;6.95;;;15.80;99.90;;;;;;5095587;28;20210;-84
2023/06/07 02:44:50;;;;;;;9.38;6.47;;;15.90;99.90;;;;;;5096176;28;20696;-84
2023/06/07 02:47:16;;;;;;;16.33;6.85;;;15.90;99.90;;;;;;5077668;28;20235;-85
2023/06/07 02:49:42;;;;;;;11.10;6.70;;;15.90;99.90;;;;;;5077860;28;20179;-84
2023/06/07 02:52:09;;;;;;;10.10;6.63;;;15.90;99.90;;;;;;5095379;28;20202;-85
2023/06/07 02:54:34;;;;;;;12.38;6.57;;;16.00;99.90;;;;;;5077578;28;20174;-84
2023/06/07 02:57:01;;;;;;;12.93;6.45;;;16.00;99.90;;;;;;5095368;28;20635;-84
2023/06/07 02:59:26;;;;;;;11.48;7.18;;;16.00;99.90;;;;;;5077153;28;20183;-84
2023/06/07 03:01:53;;;;;;;8.50;5.88;;;16.10;99.90;;;;;;5095625;28;20264;-84
2023/06/07 03:04:19;;;;;;;9.95;5.35;;;16.10;99.90;;;;;;5095517;28;20235;-84
2023/06/07 03:06:46;;;;;;;10.05;5.30;;;16.20;99.90;;;;;;5095419;28;20689;-84
2023/06/07 03:09:15;;;;;;;13.07;5.72;;;16.20;99.90;;;;;;5060826;28;20220;-84
2023/06/07 03:11:40;;;;;;;9.48;5.78;;;16.20;99.90;;;;;;5095251;28;20182;-84
2023/06/07 03:14:06;;;;;;;13.60;6.05;;;16.30;99.90;;;;;;5076777;28;20623;-84
2023/06/07 03:16:32;;;;;;;14.05;5.90;;;;;;;;;;5094592;28;20263;-85
2023/06/07 03:18:58;;;;;;;8.07;5.35;;;16.30;99.90;;;;;;5076818;28;20175;-85
2023/06/07 03:21:23;;;;;;;13.68;6.30;;;16.30;99.90;;;;;;5094804;28;20202;-84
2023/06/07 03:23:49;;;;;;;10.27;5.30;;;16.40;99.90;;;;;;5094791;28;20603;-84
2023/06/07 03:26:17;;;;;;;10.57;5.53;;;16.40;99.90;;;;;;5076180;28;20252;-84
2023/06/07 03:28:42;;;;;;;10.10;5.88;;;16.40;99.90;;;;;;5095051;28;20259;-85
2023/06/07 03:31:08;;;;;;;8.48;5.50;;;16.50;99.90;;;;;;5076824;28;20638;-84
2023/06/07 03:33:33;;;;;;;8.32;5.13;;;16.50;99.90;;;;;;5076690;28;20704;-84
2023/06/07 03:35:59;;;;;;;7.70;5.32;;;16.60;99.90;;;;;;5076765;28;20185;-84
2023/06/07 03:38:25;;;;;;;7.95;5.32;;;16.60;99.90;;;;;;5091619;28;20605;-85
2023/06/07 03:40:50;;;;;;;11.50;5.47;;;16.70;99.90;;;;;;5053884;28;20182;-85
2023/06/07 03:43:16;;;;;;;8.68;4.82;;;16.80;99.90;;;;;;5038674;28;20267;-85
2023/06/07 03:45:42;;;;;;;10.55;4.75;;;16.80;99.90;;;;;;5061845;28;20179;-84
2023/06/07 03:48:07;;;;;;;10.30;5.15;;;16.90;99.90;;;;;;5069690;28;20226;-85
2023/06/07 03:50:33;;;;;;;6.00;4.38;;;17.00;99.90;;;;;;5072743;28;20529;-86
2023/06/07 03:52:58;;;;;;;8.88;4.88;;;16.90;99.90;;;;;;5072236;28;20711;-84
2023/06/07 03:55:24;;;;;;;12.75;5.05;;;16.80;99.90;;;;;;5053241;28;20607;-84
2023/06/07 03:57:50;;;;;;;8.27;4.95;;;16.80;99.90;;;;;;5071344;28;20552;-86
2023/06/07 04:00:17;;;;;;;6.38;4.78;;;16.80;99.90;;;;;;5053514;28;20281;-85
2023/06/07 04:02:43;;;;;;;13.98;5.80;;;17.00;99.90;;;;;;5054087;28;20218;-84
2023/06/07 04:05:09;;;;;;;8.63;5.05;;;17.10;99.90;;;;;;5052919;28;20705;-85
2023/06/07 04:07:35;;;;;;;6.68;3.97;;;17.10;99.90;;;;;;5070486;28;20666;-85
2023/06/07 04:10:00;;;;;;;5.20;3.75;;;17.00;99.90;;;;;;5053256;28;20264;-85
2023/06/07 04:12:26;;;;;;;7.72;4.05;;;16.90;99.90;;;;;;5054822;28;20525;-86
2023/06/07 04:14:52;;;;;;;7.80;4.60;;;16.80;99.90;;;;;;5038153;28;20194;-85
2023/06/07 04:17:17;;;;;;;6.53;4.28;;;17.00;99.90;;;;;;5052963;28;20194;-85
2023/06/07 04:19:43;;;;;;;7.28;4.45;;;17.10;99.90;;;;;;5071185;28;20186;-86
2023/06/07 04:22:09;;;;;;;6.22;4.05;;;17.10;99.90;;;;;;5070830;28;20273;-86
2023/06/07 04:24:34;;;;;;;8.30;4.18;;;17.10;99.90;;;;;;5052673;28;20274;-85
2023/06/07 04:27:01;;;;;;;7.32;4.43;;;17.20;99.90;;;;;;5032323;28;20239;-85
2023/06/07 04:29:26;;;;;;;7.20;4.28;;;17.20;99.90;;;;;;5049828;28;20606;-85
2023/06/07 04:31:56;;;;;;;8.25;4.40;;;17.20;99.90;;;;;;5053775;28;20282;-85
2023/06/07 04:34:24;;;;;;;6.28;4.55;;;17.30;99.90;;;;;;5053403;28;20179;-85
2023/06/07 04:36:50;;;;;;;7.55;4.20;;;17.40;99.90;;;;;;5071352;28;20194;-85
2023/06/07 04:39:18;;;;;;;5.13;3.75;;;17.50;99.90;;;;;;5071812;28;20189;-86
2023/06/07 04:41:45;;;;;;;4.78;3.10;;;17.70;99.90;;;;;;5071284;28;20211;-86
2023/06/07 04:44:11;;;;;;;4.50;3.35;;;17.90;99.90;;;;;;5071421;28;20282;-85
2023/06/07 04:46:39;;;;;;;4.68;3.33;;;17.90;99.90;;;;;;5070872;28;20266;-86
2023/06/07 04:49:08;;;;;;;4.18;3.42;;;18.10;99.90;;;;;;5053562;28;20191;-85
2023/06/07 04:51:35;;;;;;;5.45;3.45;;;18.10;99.90;;;;;;5036945;28;20179;-86
2023/06/07 04:54:04;;;;;;;4.20;2.75;;;18.20;99.90;;;;;;5060940;28;20183;-85
2023/06/07 04:56:30;;;;;;;4.43;2.95;;;18.30;99.90;;;;;;5053237;28;20183;-85
2023/06/07 04:58:56;;;;;;;4.97;2.70;;;18.50;99.90;;;;;;5053540;28;20190;-86
2023/06/07 05:01:22;;;;;;;5.25;3.80;;;18.70;99.90;;;;;;5071340;28;20207;-84
2023/06/07 05:03:49;;;;;;;5.97;3.53;;;18.90;99.90;;;;;;5071494;28;20224;-84
2023/06/07 05:06:17;;;;;;;4.18;2.67;;;19.10;99.90;;;;;;5072267;28;20183;-85
2023/06/07 05:08:43;;;;;;;4.30;2.60;;;19.30;99.90;;;;;;5072372;28;20201;-84
2023/06/07 05:11:08;;;;;;;2.70;2.22;;;19.40;99.90;;;;;;5054919;28;20168;-84
2023/06/07 05:13:34;;;;;;;3.60;2.67;;;19.40;99.90;;;;;;5072395;28;20183;-86
2023/06/07 05:16:01;;;;;;;4.05;2.45;;;19.50;99.90;;;;;;5073160;28;20526;-87
2023/06/07 05:18:27;;;;;;;2.67;2.08;;;19.60;99.90;;;;;;5075283;28;20179;-87
2023/06/07 05:20:53;;;;;;;3.28;2.22;;;19.70;99.90;;;;;;5061446;28;20175;-88
2023/06/07 05:23:18;;;;;;;2.83;1.83;;;19.80;99.90;;;;;;5075444;28;20186;-86
2023/06/07 05:25:45;;;;;;;3.28;2.05;;;20.10;99.90;;;;;;5056341;28;20482;-86
2023/06/07 05:28:11;;;;;;;2.47;1.85;;;;;;;;;;5078019;28;20226;-87
2023/06/07 05:30:37;;;;;;;6.18;1.95;;;20.40;99.90;;;;;;5067099;28;20221;-85
2023/06/07 05:33:04;;;;;;;1.55;1.45;;;20.50;99.90;;;;;;5067975;28;20187;-85
2023/06/07 05:35:30;;;;;;;2.38;1.65;;;20.60;99.90;;;;;;5085699;28;20209;-86
2023/06/07 05:37:55;;;;;;;3.25;1.33;;;20.60;99.90;;;;;;5057198;28;20187;-85
2023/06/07 05:40:21;;;;;;;1.70;1.50;;;20.60;99.90;;;;;;5077780;28;20233;-90
2023/06/07 05:42:49;;;;;;;1.48;1.38;;;20.40;99.90;;;;;;5077596;28;20234;-89
2023/06/07 05:45:18;;;;;;;1.60;1.50;;;20.40;99.90;;;;;;5059550;28;20187;-88
2023/06/07 05:47:44;;;;;;;1.90;1.70;;;20.30;99.90;;;;;;5077534;28;20207;-89
2023/06/07 05:50:11;;;;;;;2.58;1.60;;;20.30;99.90;;;;;;5077135;28;20605;-89
2023/06/07 05:52:37;;;;;;;3.03;1.85;;;20.40;99.90;;;;;;5059024;28;20191;-84
2023/06/07 05:55:03;;;;;;;4.75;1.70;;;20.30;99.90;;;;;;5077071;28;20193;-85
2023/06/07 05:57:29;;;;;;;4.00;1.58;;;20.40;99.90;;;;;;5058506;28;20187;-84
2023/06/07 05:59:55;;;;;;;1.75;1.65;;;20.40;99.90;;;;;;5076216;28;20651;-83
2023/06/07 06:02:23;;;;;;;2.53;1.90;;;20.40;99.90;;;;;;5058153;28;20210;-83
2023/06/07 06:04:51;;;;;;;3.35;1.75;;;20.50;99.90;;;;;;5041475;28;20975;-83
2023/06/07 06:07:17;;;;;;;2.42;1.70;;;20.60;99.90;;;;;;5076147;28;20183;-85
2023/06/07 06:09:42;;;;;;;2.25;1.40;;;20.60;99.90;;;;;;5057878;28;20179;-83
2023/06/07 06:12:09;;;;;;;2.58;1.60;;;20.60;99.90;;;;;;5075962;28;20543;-83
2023/06/07 06:14:34;;;;;;;3.35;1.70;;;20.70;99.90;;;;;;5075471;28;20663;-83
2023/06/07 06:17:00;;;;;;;4.35;1.58;;;20.70;99.90;;;;;;5058020;28;20179;-83
2023/06/07 06:19:26;;;;;;;2.03;1.33;;;20.70;99.90;;;;;;5041492;28;20717;-83
2023/06/07 06:21:51;;;;;;;1.88;1.48;;;20.80;99.90;;;;;;5075449;28;20207;-84
2023/06/07 06:24:17;;;;;;;1.65;1.40;;;20.80;99.90;;;;;;5057687;28;20187;-83
2023/06/07 06:26:43;;;;;;;2.17;1.42;;;20.90;99.90;;;;;;5075486;28;20562;-83
2023/06/07 06:29:08;;;;;;;1.33;1.23;;;21.00;99.90;;;;;;5075554;28;20221;-83
2023/06/07 06:31:34;;;;;;;2.10;1.13;;;21.00;99.90;;;;;;5075313;28;20186;-84
2023/06/07 06:34:00;;;;;;;1.30;1.20;;;21.10;99.90;;;;;;5075530;28;20540;-84
2023/06/07 06:36:26;;;;;;;1.63;1.40;;;21.20;99.90;;;;;;5057856;28;20218;-83
2023/06/07 06:38:52;;;;;;;1.30;1.08;;;21.30;99.90;;;;;;5057526;28;20267;-83
2023/06/07 06:41:18;;;;;;;2.42;1.30;;;21.40;99.90;;;;;;5040805;28;20642;-83
2023/06/07 06:43:43;;;;;;;1.55;1.25;;;21.50;99.90;;;;;;5057366;28;20186;-84
2023/06/07 06:46:10;;;;;;;2.30;1.20;;;21.60;99.90;;;;;;5040958;28;20274;-84
2023/06/07 06:48:37;;;;;;;1.70;1.20;;;21.60;99.90;;;;;;5057043;28;20244;-85
2023/06/07 06:51:02;;;;;;;1.10;0.82;;;21.60;99.90;;;;;;5075475;28;20224;-85
2023/06/07 06:53:28;;;;;;;1.42;1.10;;;21.60;99.90;;;;;;5075020;28;20168;-84
2023/06/07 06:55:54;;;;;;;1.30;1.20;;;21.90;99.90;;;;;;5075144;28;20945;-84
2023/06/07 06:58:19;;;;;;;1.90;1.30;;;21.60;99.90;;;;;;5057258;28;20543;-84
2023/06/07 07:00:45;;;;;;;1.92;1.50;;;21.90;99.90;;;;;;5074793;28;20179;-84
2023/06/07 07:03:11;;;;;;;2.30;1.40;;;21.30;99.90;;;;;;5056857;28;20214;-84
2023/06/07 07:05:36;;;;;;;4.93;1.30;;;21.40;99.90;;;;;;5074874;28;20705;-84
2023/06/07 07:08:03;;;;;;;1.58;1.10;;;21.50;99.90;;;;;;5075117;28;20228;-84
2023/06/07 07:10:28;;;;;;;1.35;1.08;;;21.60;99.90;;;;;;5074897;28;20262;-84
2023/06/07 07:12:54;;;;;;;1.70;1.13;;;21.80;99.90;;;;;;5075213;28;20687;-84
2023/06/07 07:15:20;;;;;;;1.67;1.55;;;22.00;99.90;;;;;;5057396;28;20183;-84
2023/06/07 07:17:48;;;;;;;2.10;1.38;;;22.10;99.90;;;;;;5075262;28;20513;-85
2023/06/07 07:20:14;;;;;;;1.40;1.30;;;22.10;99.90;;;;;;5075299;28;20233;-84
2023/06/07 07:22:41;;;;;;;2.65;0.93;;;22.20;99.90;;;;;;5057043;28;20301;-84
2023/06/07 07:25:07;;;;;;;1.80;1.25;;;22.30;99.90;;;;;;5074907;28;20228;-84
2023/06/07 07:27:33;;;;;;;2.70;0.98;;;22.40;99.90;;;;;;5056581;28;20230;-84
2023/06/07 07:30:00;;;;;;;2.03;1.48;;;22.40;99.90;;;;;;5074328;28;20679;-84
2023/06/07 07:32:26;;;;;;;1.60;1.20;;;;;;;;;;5056962;28;20187;-84
2023/06/07 07:34:51;;;;;;;1.92;1.33;;;22.30;99.90;;;;;;5057295;28;20202;-84
2023/06/07 07:37:17;;;;;;;3.08;1.10;;;22.40;99.90;;;;;;5057236;28;20631;-84
2023/06/07 07:39:43;;;;;;;1.42;1.30;;;22.30;99.90;;;;;;5056676;28;20666;-84
2023/06/07 07:42:09;;;;;;;2.05;1.40;;;22.30;99.90;;;;;;5056717;28;20214;-83
2023/06/07 07:44:34;;;;;;;1.92;1.33;;;22.30;99.90;;;;;;5056990;28;20183;-87
2023/06/07 07:47:00;;;;;;;1.73;1.33;;;22.30;99.90;;;;;;5057331;28;20183;-87
2023/06/07 07:49:26;;;;;;;3.28;1.58;;;22.10;99.90;;;;;;5040096;28;20754;-84
2023/06/07 07:51:52;;;;;;;2.15;1.65;;;22.20;99.90;;;;;;5073706;28;20202;-84
2023/06/07 07:54:17;;;;;;;2.10;1.38;;;22.40;99.90;;;;;;5039604;28;20547;-84
2023/06/07 07:56:44;;;;;;;1.35;1.23;;;22.50;99.90;;;;;;5056138;28;20176;-84
2023/06/07 07:59:10;;;;;;;2.15;1.50;;;22.70;99.90;;;;;;5074478;28;20183;-84
2023/06/07 08:01:36;;;;;;;4.60;1.73;;;22.80;99.90;;;;;;5056092;28;20290;-84
2023/06/07 08:04:02;;;;;;;2.35;1.58;;;22.80;99.90;;;;;;5073596;28;20278;-84
2023/06/07 08:06:27;;;;;;;2.10;1.50;;;22.70;99.90;;;;;;5056415;28;20179;-84
2023/06/07 08:08:53;;;;;;;2.58;1.88;;;22.80;99.90;;;;;;5073697;28;20172;-84
2023/06/07 08:11:19;;;;;;;2.42;1.90;;;22.80;99.90;;;;;;5056048;28;20183;-84
2023/06/07 08:13:44;;;;;;;2.08;1.60;;;22.90;99.90;;;;;;5055885;28;20207;-84
2023/06/07 08:16:10;;;;;;;2.60;1.90;;;22.80;99.90;;;;;;5056011;28;20205;-84
2023/06/07 08:18:36;;;;;;;2.38;1.92;;;22.90;99.90;;;;;;5040668;28;20171;-84
2023/06/07 08:21:03;;;;;;;3.40;2.22;;;22.90;99.90;;;;;;5055819;28;20183;-84
2023/06/07 08:23:30;;;;;;;2.83;2.00;;;22.90;99.90;;;;;;5039192;28;20222;-84
2023/06/07 08:25:57;;;;;;;2.47;1.92;;;23.00;99.90;;;;;;5073685;28;20179;-84
2023/06/07 08:28:26;;;;;;;2.40;1.90;;;23.10;99.90;;;;;;5073571;28;20175;-84
2023/06/07 08:30:52;;;;;;;4.05;1.90;;;23.20;99.90;;;;;;5055262;28;20672;-84
2023/06/07 08:33:18;;;;;;;4.07;2.40;;;23.30;99.90;;;;;;5075212;28;20186;-84
2023/06/07 08:35:43;;;;;;;2.90;2.05;;;23.20;99.90;;;;;;5056355;28;20183;-84
2023/06/07 08:38:09;;;;;;;2.20;1.70;;;23.30;99.90;;;;;;5056397;28;20578;-84
2023/06/07 08:40:38;;;;;;;2.42;1.70;;;23.40;99.90;;;;;;5081040;28;20175;-84
2023/06/07 08:43:04;;;;;;;2.50;2.00;;;23.40;99.90;;;;;;5072426;28;20194;-84
2023/06/07 08:45:29;;;;;;;2.42;1.90;;;23.50;99.90;;;;;;5057379;28;20262;-84
2023/06/07 08:47:58;;;;;;;2.88;1.98;;;23.30;99.90;;;;;;5066754;28;20179;-84
2023/06/07 08:50:26;;;;;;;2.20;1.98;;;23.40;99.90;;;;;;5073728;28;20552;-84
2023/06/07 08:52:55;;;;;;;4.30;2.35;;;23.50;99.90;;;;;;5073239;28;20199;-85
2023/06/07 08:55:21;;;;;;;3.22;2.13;;;23.70;99.90;;;;;;5073455;28;20274;-84
2023/06/07 08:57:52;;;;;;;2.90;1.83;;;23.80;99.90;;;;;;5072957;28;20289;-84
2023/06/07 09:00:25;;;;;;;3.45;2.58;;;23.90;99.90;;;;;;5073455;28;20308;-84
2023/06/07 09:02:52;;;;;;;2.65;2.17;;;24.00;99.60;;;;;;5073210;28;20259;-84
2023/06/07 09:05:22;;;;;;;5.43;2.50;;;24.20;98.60;;;;;;5073107;28;20186;-84
2023/06/07 09:07:49;;;;;;;2.88;1.92;;;24.10;99.20;;;;;;5056220;28;20548;-85
2023/06/07 09:10:17;;;;;;;3.42;2.42;;;24.10;99.50;;;;;;5072821;28;20183;-84
2023/06/07 09:12:46;;;;;;;2.88;2.25;;;24.20;98.20;;;;;;5075733;28;20185;-84
2023/06/07 09:15:20;;;;;;;3.67;2.53;;;24.20;98.80;;;;;;5077494;28;20203;-84
2023/06/07 09:17:53;;;;;;;2.85;2.40;;;24.30;96.70;;;;;;5077926;28;20174;-84
2023/06/07 09:20:24;;;;;;;2.92;1.77;;;24.20;95.30;;;;;;5044211;28;20183;-85
2023/06/07 09:23:11;;;;;;;2.45;2.05;;;24.30;94.60;;;;;;5077886;28;20202;-85
2023/06/07 09:25:37;;;;;;;2.58;2.10;;;24.50;94.00;;;;;;5059752;28;20179;-84
2023/06/07 09:28:07;;;;;;;2.97;2.20;;;24.40;93.90;;;;;;5077559;28;20219;-84
2023/06/07 09:30:33;;;;;;;3.42;2.22;;;24.40;94.40;;;;;;5059227;28;20258;-85
2023/06/07 09:32:59;;;;;;;3.08;2.10;;;24.60;95.00;;;;;;5077178;28;20221;-84
2023/06/07 09:35:25;;;;;;;3.72;2.58;;;24.80;95.00;;;;;;5043375;28;20179;-86
2023/06/07 09:37:55;;;;;;;3.22;2.30;;;25.00;94.50;;;;;;5077714;28;20175;-86
2023/06/07 09:40:22;;;;;;;2.33;1.92;;;25.00;94.00;;;;;;5059019;28;20176;-85
2023/06/07 09:42:58;;;;;;;3.20;1.83;;;24.90;93.60;;;;;;5077512;28;20207;-85
2023/06/07 09:45:25;;;;;;;2.63;2.22;;;24.90;93.70;;;;;;5077581;28;20677;-86
2023/06/07 09:48:01;;;;;;;3.47;2.45;;;24.80;94.10;;;;;;5059436;28;20187;-87
2023/06/07 09:50:28;;;;;;;2.53;1.83;;;24.90;91.50;;;;;;5078557;28;20611;-86
2023/06/07 09:52:58;;;;;;;2.70;1.98;;;25.00;92.00;;;;;;5078107;28;20240;-86
2023/06/07 09:55:26;;;;;;;3.45;1.98;;;25.10;92.10;;;;;;5078364;28;20168;-85
2023/06/07 09:57:52;;;;;;;3.08;2.10;;;25.00;90.40;;;;;;5076873;28;20301;-84
2023/06/07 10:00:19;;;;;;;4.72;2.30;;;25.20;90.70;;;;;;5058789;28;20237;-84
2023/06/07 10:02:48;;;;;;;3.72;2.60;;;25.40;90.30;;;;;;5060549;28;20226;-84
2023/06/07 10:05:15;;;;;;;2.25;1.85;;;25.50;90.50;;;;;;5077351;28;20178;-85
2023/06/07 10:07:46;;;;;;;2.60;2.08;;;25.40;90.30;;;;;;5077587;28;20175;-85
2023/06/07 10:10:14;;;;;;;2.78;1.75;;;25.40;85.90;;;;;;5077722;28;20266;-85
2023/06/07 10:12:44;;;;;;;2.53;2.03;;;25.40;87.70;;;;;;5078064;28;20261;-85
2023/06/07 10:15:12;;;;;;;3.42;1.92;;;25.60;88.40;;;;;;5076864;28;20182;-85
2023/06/07 10:17:48;;;;;;;1.83;1.50;;;25.50;84.10;;;;;;5060015;28;20187;-85
2023/06/07 10:20:30;;;;;;;1.77;1.42;;;25.50;80.50;;;;;;5076902;28;20155;-85
2023/06/07 10:23:18;;;;;;;22.23;2.25;;;25.70;80.30;;;;;;5077450;28;20213;-85
2023/06/07 10:25:53;;;;;;;1.92;1.70;;;25.60;79.40;;;;;;5077118;28;20182;-85
2023/06/07 10:28:30;;;;;;;3.70;1.70;;;25.60;80.80;;;;;;5076543;28;20229;-84
2023/06/07 10:31:08;;;;;;;15.23;2.72;;;25.90;80.80;;;;;;5059284;28;20183;-84
2023/06/07 10:33:34;;;;;;;2.80;2.13;;;25.90;80.60;;;;;;5076446;28;20193;-85
2023/06/07 10:36:00;;;;;;;2.45;1.90;;;26.00;81.30;;;;;;5076658;28;20163;-86
2023/06/07 10:38:32;;;;;;;2.10;1.58;;;25.80;77.70;;;;;;5076235;28;20255;-84
2023/06/07 10:41:00;;;;;;;2.50;1.80;;;25.80;79.20;;;;;;5076906;28;20179;-85
2023/06/07 10:43:30;;;;;;;3.65;2.50;;;25.80;79.30;;;;;;5059400;28;20582;-85
2023/06/07 10:46:23;;;;;;;6.05;2.25;;;25.80;81.20;;;;;;5058653;28;20183;-85
2023/06/07 10:48:50;;;;;;;3.05;1.65;;;26.20;79.80;;;;;;5077451;28;20178;-85
2023/06/07 10:51:16;;;;;;;2.63;1.65;;;26.20;77.70;;;;;;5076124;28;20171;-86
2023/06/07 10:53:54;;;;;;;1.65;1.55;;;26.10;78.60;;;;;;5059986;28;20247;-87
2023/06/07 10:56:34;;;;;;;2.40;1.85;;;26.10;77.80;;;;;;5058430;28;20183;-84
2023/06/07 10:59:20;;;;;;;2.10;1.48;;;26.30;78.80;;;;;;5076094;28;20185;-84
2023/06/07 11:01:48;;;;;;;2.78;1.30;;;26.40;76.30;;;;;;5058782;28;20652;-85
2023/06/07 11:04:39;;;;;;;2.05;1.70;;;26.40;73.80;;;;;;5074736;28;20179;-85
2023/06/07 11:07:41;;;;;;;4.00;1.90;;;26.50;74.50;;;;;;5076088;28;20203;-85
2023/06/07 11:10:09;;;;;;;3.67;1.98;;;26.40;74.10;;;;;;5041797;28;20194;-84
2023/06/07 11:12:35;;;;;;;2.28;1.80;;;26.60;75.00;;;;;;5075873;28;20695;-84
2023/06/07 11:15:25;;;;;;;2.67;1.60;;;26.50;74.70;;;;;;5076049;28;20268;-84
2023/06/07 11:17:58;;;;;;;2.58;1.95;;;26.10;75.20;;;;;;5076719;28;20171;-84
2023/06/07 11:20:38;;;;;;;3.28;1.92;;;26.30;75.60;;;;;;5075369;28;21009;-84
2023/06/07 11:23:29;;;;;;;5.05;1.88;;;26.10;74.90;;;;;;5076963;28;20263;-83
2023/06/07 11:25:59;;;;;;;4.28;1.80;;;25.90;74.50;;;;;;5057913;28;20179;-84
2023/06/07 11:28:31;;;;;;;8.68;1.92;;;26.00;76.60;;;;;;5077388;28;20717;-86
2023/06/07 11:30:58;;;;;;;2.10;1.90;;;25.70;72.80;;;;;;5059317;28;20183;-85
2023/06/07 11:33:25;;;;;;;2.47;1.95;;;25.90;71.00;;;;;;5057582;28;20187;-86
2023/06/07 11:35:52;;;;;;;1.70;1.38;;;25.80;71.20;;;;;;5074966;28;20175;-86
2023/06/07 11:38:19;;;;;;;2.92;1.63;;;25.70;71.50;;;;;;5076026;28;20313;-85
2023/06/07 11:40:45;;;;;;;2.92;2.08;;;25.90;70.90;;;;;;5042298;28;20231;-85
2023/06/07 11:43:12;;;;;;;2.35;1.70;;;25.90;70.00;;;;;;5058295;28;20210;-86
2023/06/07 11:45:44;;;;;;;2.63;1.85;;;25.80;70.40;;;;;;5058948;28;20191;-85
2023/06/07 11:48:10;;;;;;;6.05;2.10;;;25.80;71.30;;;;;;5058305;28;20213;-85
2023/06/07 11:50:37;;;;;;;1.83;1.60;;;26.00;69.60;;;;;;5058601;28;20612;-85
2023/06/07 11:53:03;;;;;;;2.83;1.77;;;26.10;70.90;;;;;;5024685;28;20179;-85
2023/06/07 11:55:30;;;;;;;2.38;1.80;;;25.90;68.80;;;;;;5061333;28;20175;-84
2023/06/07 11:57:59;;;;;;;2.15;1.85;;;25.70;70.40;;;;;;5049165;28;20179;-86
2023/06/07 12:00:25;;;;;;;3.10;1.83;;;25.50;69.10;;;;;;5059944;28;20274;-86
2023/06/07 12:02:52;;;;;;;2.63;1.98;;;25.60;70.50;;;;;;5042474;28;20203;-86
2023/06/07 12:05:21;;;;;;;5.43;2.45;;;25.80;68.70;;;;;;5043697;28;20194;-85
2023/06/07 12:08:05;;;;;;;2.72;2.20;;;25.60;68.50;;;;;;5078081;28;20163;-85
2023/06/07 12:10:33;;;;;;;2.47;1.48;;;25.70;69.50;;;;;;5076172;28;20198;-85
2023/06/07 12:13:19;;;;;;;4.32;2.20;;;25.60;69.00;;;;;;5058031;28;20179;-85
2023/06/07 12:15:58;;;;;;;2.47;1.92;;;25.40;66.60;;;;;;5058421;28;20178;-85
2023/06/07 12:18:34;;;;;;;2.47;1.77;;;25.30;68.40;;;;;;5075394;28;20208;-85
2023/06/07 12:21:11;;;;;;;3.90;1.83;;;25.40;69.80;;;;;;5058313;28;20182;-85
2023/06/07 12:23:48;;;;;;;1.85;1.42;;;25.70;69.40;;;;;;5056449;28;20277;-85
2023/06/07 12:26:19;;;;;;;2.60;1.75;;;25.90;68.50;;;;;;5056611;28;20245;-85
2023/06/07 12:28:45;;;;;;;2.58;1.50;;;;;;;;;;5074358;28;20254;-85
2023/06/07 12:31:26;;;;;;;4.90;1.90;;;26.10;63.50;;;;;;5041184;28;20183;-85
2023/06/07 12:34:01;;;;;;;5.40;1.58;;;25.70;67.30;;;;;;5058837;28;20175;-85
2023/06/07 12:36:28;;;;;;;3.30;1.67;;;25.70;64.40;;;;;;5074734;28;20167;-85
2023/06/07 12:38:57;;;;;;;5.80;2.50;;;25.80;66.60;;;;;;5075441;28;20206;-85
2023/06/07 12:41:27;;;;;;;1.88;1.73;;;25.90;65.80;;;;;;5075931;28;20179;-85
2023/06/07 12:43:54;;;;;;;2.55;1.98;;;26.20;63.60;;;;;;5058128;28;20215;-86
2023/06/07 12:46:20;;;;;;;6.70;1.85;;;25.90;63.30;;;;;;5062053;28;20219;-86
2023/06/07 12:48:46;;;;;;;2.55;2.22;;;25.80;64.90;;;;;;5085889;28;20186;-85
2023/06/07 12:51:12;;;;;;;2.22;1.70;;;25.70;66.00;;;;;;5067505;28;20167;-85